sensor_id;sensor_type;location;lat;lon;timestamp;temperature;humidity
5150;DHT22;2593;52.466;13.436;2022-10-16T00:00:42;14.80;99.90
5150;DHT22;2593;52.466;13.436;2022-10-16T00:03:08;14.80;99.90
5150;DHT22;2593;52.466;13.436;2022-10-16T00:05:40;14.80;99.90
5150;DHT22;2593;52.466;13.436;2022-10-16T00:08:06;14.80;99.90
5150;DHT22;2593;52.466;13.436;2022-10-16T00:10:33;14.80;99.90
5150;DHT22;2593;52.466;13.436;2022-10-16T00:12:58;14.90;99.90
5150;DHT22;2593;52.466;13.436;2022-10-16T00:15:24;14.90;99.90
5150;DHT22;2593;52.466;13.436;2022-10-16T00:17:50;14.90;99.90
5150;DHT22;2593;52.466;13.436;2022-10-16T00:20:15;14.90;99.90
5150;DHT22;2593;52.466;13.436;2022-10-16T00:22:41;14.90;99.90
5150;DHT22;2593;52.466;13.436;2022-10-16T00:25:07;14.90;99.90
5150;DHT22;2593;52.466;13.436;2022-10-16T00:27:33;15.00;99.90
5150;DHT22;2593;52.466;13.436;2022-10-16T00:29:58;15.00;99.90
5150;DHT22;2593;52.466;13.436;2022-10-16T00:32:24;15.00;99.90
5150;DHT22;2593;52.466;13.436;2022-10-16T00:34:50;15.00;99.90
5150;DHT22;2593;52.466;13.436;2022-10-16T00:37:16;15.00;99.90
5150;DHT22;2593;52.466;13.436;2022-10-16T00:39:42;15.00;99.90
5150;DHT22;2593;52.466;13.436;2022-10-16T00:42:14;15.00;99.90
5150;DHT22;2593;52.466;13.436;2022-10-16T00:44:56;15.10;99.90
5150;DHT22;2593;52.466;13.436;2022-10-16T00:49:58;15.10;99.90
5150;DHT22;2593;52.466;13.436;2022-10-16T00:52:25;15.10;99.90
5150;DHT22;2593;52.466;13.436;2022-10-16T00:54:52;15.10;99.90
5150;DHT22;2593;52.466;13.436;2022-10-16T00:57:18;15.20;99.90
5150;DHT22;2593;52.466;13.436;2022-10-16T00:59:45;15.20;99.90
5150;DHT22;2593;52.466;13.436;2022-10-16T01:02:14;15.10;99.90
5150;DHT22;2593;52.466;13.436;2022-10-16T01:04:50;15.10;99.90
5150;DHT22;2593;52.466;13.436;2022-10-16T01:07:46;15.10;99.90
5150;DHT22;2593;52.466;13.436;2022-10-16T01:10:35;15.10;99.90
5150;DHT22;2593;52.466;13.436;2022-10-16T01:13:10;15.10;99.90
5150;DHT22;2593;52.466;13.436;2022-10-16T01:15:51;15.10;99.90
5150;DHT22;2593;52.466;13.436;2022-10-16T01:34:52;15.00;99.90
5150;DHT22;2593;52.466;13.436;2022-10-16T01:37:36;15.00;99.90
5150;DHT22;2593;52.466;13.436;2022-10-16T01:40:06;15.00;99.90
5150;DHT22;2593;52.466;13.436;2022-10-16T01:42:37;15.00;99.90
5150;DHT22;2593;52.466;13.436;2022-10-16T01:45:05;15.00;99.90
5150;DHT22;2593;52.466;13.436;2022-10-16T01:47:33;15.00;99.90
5150;DHT22;2593;52.466;13.436;2022-10-16T01:50:02;15.00;99.90
5150;DHT22;2593;52.466;13.436;2022-10-16T01:52:33;14.90;99.90
5150;DHT22;2593;52.466;13.436;2022-10-16T01:55:02;14.90;99.90
5150;DHT22;2593;52.466;13.436;2022-10-16T01:57:29;14.90;99.90
5150;DHT22;2593;52.466;13.436;2022-10-16T01:59:58;14.90;99.90
5150;DHT22;2593;52.466;13.436;2022-10-16T02:02:28;14.90;99.90
5150;DHT22;2593;52.466;13.436;2022-10-16T02:05:01;14.80;99.90
5150;DHT22;2593;52.466;13.436;2022-10-16T02:07:30;14.80;99.90
5150;DHT22;2593;52.466;13.436;2022-10-16T02:09:56;14.90;99.90
5150;DHT22;2593;52.466;13.436;2022-10-16T02:12:24;14.90;99.90
5150;DHT22;2593;52.466;13.436;2022-10-16T02:14:51;14.90;99.90
5150;DHT22;2593;52.466;13.436;2022-10-16T02:17:18;14.90;99.90
5150;DHT22;2593;52.466;13.436;2022-10-16T02:19:45;14.90;99.90
5150;DHT22;2593;52.466;13.436;2022-10-16T02:22:18;14.90;99.90
5150;DHT22;2593;52.466;13.436;2022-10-16T02:25:04;15.00;99.90
5150;DHT22;2593;52.466;13.436;2022-10-16T02:32:42;15.00;99.90
5150;DHT22;2593;52.466;13.436;2022-10-16T02:35:09;15.00;99.90
5150;DHT22;2593;52.466;13.436;2022-10-16T02:37:36;15.00;99.90
5150;DHT22;2593;52.466;13.436;2022-10-16T02:40:04;15.00;99.90
5150;DHT22;2593;52.466;13.436;2022-10-16T02:42:35;15.10;99.90
5150;DHT22;2593;52.466;13.436;2022-10-16T02:45:01;15.10;99.90
5150;DHT22;2593;52.466;13.436;2022-10-16T02:47:27;15.10;99.90
5150;DHT22;2593;52.466;13.436;2022-10-16T02:49:52;15.00;99.90
5150;DHT22;2593;52.466;13.436;2022-10-16T02:52:18;15.10;99.90
5150;DHT22;2593;52.466;13.436;2022-10-16T02:54:43;15.10;99.90
5150;DHT22;2593;52.466;13.436;2022-10-16T02:57:09;15.10;99.90
5150;DHT22;2593;52.466;13.436;2022-10-16T02:59:34;15.10;99.90
5150;DHT22;2593;52.466;13.436;2022-10-16T03:02:00;15.10;99.90
5150;DHT22;2593;52.466;13.436;2022-10-16T03:04:26;15.10;99.90
5150;DHT22;2593;52.466;13.436;2022-10-16T03:06:51;15.00;99.90
5150;DHT22;2593;52.466;13.436;2022-10-16T03:09:16;15.10;99.90
5150;DHT22;2593;52.466;13.436;2022-10-16T03:11:42;15.00;99.90
5150;DHT22;2593;52.466;13.436;2022-10-16T03:14:08;15.00;99.90
5150;DHT22;2593;52.466;13.436;2022-10-16T03:16:33;15.00;99.90
5150;DHT22;2593;52.466;13.436;2022-10-16T03:18:59;15.00;99.90
5150;DHT22;2593;52.466;13.436;2022-10-16T03:21:24;15.00;99.90
5150;DHT22;2593;52.466;13.436;2022-10-16T03:23:50;14.90;99.90
5150;DHT22;2593;52.466;13.436;2022-10-16T03:26:15;14.90;99.90
5150;DHT22;2593;52.466;13.436;2022-10-16T03:28:41;15.00;99.90
5150;DHT22;2593;52.466;13.436;2022-10-16T03:31:06;14.90;99.90
5150;DHT22;2593;52.466;13.436;2022-10-16T03:33:33;14.90;99.90
5150;DHT22;2593;52.466;13.436;2022-10-16T03:35:59;14.90;99.90
5150;DHT22;2593;52.466;13.436;2022-10-16T03:38:25;14.90;99.90
5150;DHT22;2593;52.466;13.436;2022-10-16T03:40:51;14.90;99.90
5150;DHT22;2593;52.466;13.436;2022-10-16T03:43:16;14.80;99.90
5150;DHT22;2593;52.466;13.436;2022-10-16T03:45:42;14.80;99.90
5150;DHT22;2593;52.466;13.436;2022-10-16T03:48:07;14.80;99.90
5150;DHT22;2593;52.466;13.436;2022-10-16T03:50:33;14.80;99.90
5150;DHT22;2593;52.466;13.436;2022-10-16T03:52:58;14.80;99.90
5150;DHT22;2593;52.466;13.436;2022-10-16T03:55:24;14.70;99.90
5150;DHT22;2593;52.466;13.436;2022-10-16T03:57:50;14.70;99.90
5150;DHT22;2593;52.466;13.436;2022-10-16T04:00:15;14.70;99.90
5150;DHT22;2593;52.466;13.436;2022-10-16T04:02:41;14.70;99.90
5150;DHT22;2593;52.466;13.436;2022-10-16T04:05:06;14.70;99.90
5150;DHT22;2593;52.466;13.436;2022-10-16T04:07:32;14.70;99.90
5150;DHT22;2593;52.466;13.436;2022-10-16T04:09:58;14.70;99.90
5150;DHT22;2593;52.466;13.436;2022-10-16T04:12:25;14.70;99.90
5150;DHT22;2593;52.466;13.436;2022-10-16T04:14:50;14.70;99.90
5150;DHT22;2593;52.466;13.436;2022-10-16T04:17:16;14.70;99.90
5150;DHT22;2593;52.466;13.436;2022-10-16T04:19:41;14.70;99.90
5150;DHT22;2593;52.466;13.436;2022-10-16T04:22:07;14.70;99.90
5150;DHT22;2593;52.466;13.436;2022-10-16T04:24:32;14.60;99.90
5150;DHT22;2593;52.466;13.436;2022-10-16T04:26:58;14.60;99.90
5150;DHT22;2593;52.466;13.436;2022-10-16T04:29:24;14.60;99.90
5150;DHT22;2593;52.466;13.436;2022-10-16T04:31:49;14.60;99.90
5150;DHT22;2593;52.466;13.436;2022-10-16T04:34:15;14.60;99.90
5150;DHT22;2593;52.466;13.436;2022-10-16T04:36:40;14.60;99.90
5150;DHT22;2593;52.466;13.436;2022-10-16T04:39:06;14.50;99.90
5150;DHT22;2593;52.466;13.436;2022-10-16T04:41:31;14.50;99.90
5150;DHT22;2593;52.466;13.436;2022-10-16T04:43:57;14.50;99.90
5150;DHT22;2593;52.466;13.436;2022-10-16T04:46:23;14.50;99.90
5150;DHT22;2593;52.466;13.436;2022-10-16T04:48:49;14.50;99.90
5150;DHT22;2593;52.466;13.436;2022-10-16T04:51:14;14.50;99.90
5150;DHT22;2593;52.466;13.436;2022-10-16T04:53:40;14.50;99.90
5150;DHT22;2593;52.466;13.436;2022-10-16T04:56:05;14.50;99.90
5150;DHT22;2593;52.466;13.436;2022-10-16T04:58:31;14.50;99.90
5150;DHT22;2593;52.466;13.436;2022-10-16T05:00:56;14.40;99.90
5150;DHT22;2593;52.466;13.436;2022-10-16T05:03:22;14.40;99.90
5150;DHT22;2593;52.466;13.436;2022-10-16T05:05:47;14.40;99.90
5150;DHT22;2593;52.466;13.436;2022-10-16T05:08:14;14.40;99.90
5150;DHT22;2593;52.466;13.436;2022-10-16T05:10:41;14.40;99.90
5150;DHT22;2593;52.466;13.436;2022-10-16T05:13:07;14.40;99.90
5150;DHT22;2593;52.466;13.436;2022-10-16T05:15:33;14.30;99.90
5150;DHT22;2593;52.466;13.436;2022-10-16T05:17:59;14.30;99.90
5150;DHT22;2593;52.466;13.436;2022-10-16T05:20:24;14.30;99.90
5150;DHT22;2593;52.466;13.436;2022-10-16T05:22:50;14.30;99.90
5150;DHT22;2593;52.466;13.436;2022-10-16T05:25:16;14.20;99.90
5150;DHT22;2593;52.466;13.436;2022-10-16T05:27:41;14.30;99.90
5150;DHT22;2593;52.466;13.436;2022-10-16T05:30:07;14.20;99.90
5150;DHT22;2593;52.466;13.436;2022-10-16T05:32:33;14.20;99.90
5150;DHT22;2593;52.466;13.436;2022-10-16T05:34:59;14.20;99.90
5150;DHT22;2593;52.466;13.436;2022-10-16T05:37:25;14.20;99.90
5150;DHT22;2593;52.466;13.436;2022-10-16T05:39:52;14.20;99.90
5150;DHT22;2593;52.466;13.436;2022-10-16T05:42:17;14.20;99.90
5150;DHT22;2593;52.466;13.436;2022-10-16T05:44:43;14.20;99.90
5150;DHT22;2593;52.466;13.436;2022-10-16T05:47:09;14.20;99.90
5150;DHT22;2593;52.466;13.436;2022-10-16T05:49:36;14.20;99.90
5150;DHT22;2593;52.466;13.436;2022-10-16T05:52:01;14.20;99.90
5150;DHT22;2593;52.466;13.436;2022-10-16T05:54:27;14.20;99.90
5150;DHT22;2593;52.466;13.436;2022-10-16T05:56:52;14.30;99.90
5150;DHT22;2593;52.466;13.436;2022-10-16T05:59:18;14.30;99.90
5150;DHT22;2593;52.466;13.436;2022-10-16T06:01:43;14.30;99.90
5150;DHT22;2593;52.466;13.436;2022-10-16T06:04:09;14.30;99.90
5150;DHT22;2593;52.466;13.436;2022-10-16T06:06:35;14.40;99.90
5150;DHT22;2593;52.466;13.436;2022-10-16T06:09:01;14.40;99.90
5150;DHT22;2593;52.466;13.436;2022-10-16T06:11:29;14.40;99.90
5150;DHT22;2593;52.466;13.436;2022-10-16T06:13:57;14.40;99.90
5150;DHT22;2593;52.466;13.436;2022-10-16T06:16:24;14.40;99.90
5150;DHT22;2593;52.466;13.436;2022-10-16T06:18:51;14.50;99.90
5150;DHT22;2593;52.466;13.436;2022-10-16T06:21:20;14.50;99.90
5150;DHT22;2593;52.466;13.436;2022-10-16T06:23:46;14.50;99.90
5150;DHT22;2593;52.466;13.436;2022-10-16T06:26:14;14.60;99.90
5150;DHT22;2593;52.466;13.436;2022-10-16T06:28:40;14.60;99.90
5150;DHT22;2593;52.466;13.436;2022-10-16T06:31:08;14.60;99.90
5150;DHT22;2593;52.466;13.436;2022-10-16T06:33:34;14.60;99.90
5150;DHT22;2593;52.466;13.436;2022-10-16T06:36:03;14.70;99.90
5150;DHT22;2593;52.466;13.436;2022-10-16T06:38:30;14.70;99.90
5150;DHT22;2593;52.466;13.436;2022-10-16T06:40:56;14.80;99.90
5150;DHT22;2593;52.466;13.436;2022-10-16T06:43:22;14.80;99.90
5150;DHT22;2593;52.466;13.436;2022-10-16T06:45:55;14.80;99.90
5150;DHT22;2593;52.466;13.436;2022-10-16T06:48:22;14.80;99.90
5150;DHT22;2593;52.466;13.436;2022-10-16T06:51:11;14.90;99.90
5150;DHT22;2593;52.466;13.436;2022-10-16T06:53:39;14.90;99.90
5150;DHT22;2593;52.466;13.436;2022-10-16T06:56:13;14.90;99.90
5150;DHT22;2593;52.466;13.436;2022-10-16T06:58:39;15.00;99.90
5150;DHT22;2593;52.466;13.436;2022-10-16T07:01:05;15.00;99.90
5150;DHT22;2593;52.466;13.436;2022-10-16T07:03:31;15.00;99.90
5150;DHT22;2593;52.466;13.436;2022-10-16T07:06:00;15.00;99.90
5150;DHT22;2593;52.466;13.436;2022-10-16T07:08:26;15.00;99.90
5150;DHT22;2593;52.466;13.436;2022-10-16T07:11:00;15.10;99.90
5150;DHT22;2593;52.466;13.436;2022-10-16T07:13:26;15.20;99.90
5150;DHT22;2593;52.466;13.436;2022-10-16T07:15:51;15.40;99.90
5150;DHT22;2593;52.466;13.436;2022-10-16T07:18:17;15.60;99.90
5150;DHT22;2593;52.466;13.436;2022-10-16T07:20:42;15.80;99.90
5150;DHT22;2593;52.466;13.436;2022-10-16T07:23:08;15.90;99.90
5150;DHT22;2593;52.466;13.436;2022-10-16T07:25:33;15.90;99.90
5150;DHT22;2593;52.466;13.436;2022-10-16T07:27:59;16.00;99.90
5150;DHT22;2593;52.466;13.436;2022-10-16T07:30:24;16.20;99.90
5150;DHT22;2593;52.466;13.436;2022-10-16T07:32:50;16.30;99.90
5150;DHT22;2593;52.466;13.436;2022-10-16T07:35:15;16.60;99.90
5150;DHT22;2593;52.466;13.436;2022-10-16T07:37:45;16.70;99.90
5150;DHT22;2593;52.466;13.436;2022-10-16T07:40:11;16.90;99.90
5150;DHT22;2593;52.466;13.436;2022-10-16T07:42:36;16.80;99.90
5150;DHT22;2593;52.466;13.436;2022-10-16T07:45:02;16.80;99.90
5150;DHT22;2593;52.466;13.436;2022-10-16T07:47:28;16.90;99.90
5150;DHT22;2593;52.466;13.436;2022-10-16T07:49:54;16.80;99.90
5150;DHT22;2593;52.466;13.436;2022-10-16T07:52:19;16.80;99.90
5150;DHT22;2593;52.466;13.436;2022-10-16T07:54:45;16.80;99.90
5150;DHT22;2593;52.466;13.436;2022-10-16T07:57:10;16.80;99.90
5150;DHT22;2593;52.466;13.436;2022-10-16T07:59:36;16.70;99.90
5150;DHT22;2593;52.466;13.436;2022-10-16T08:02:01;16.80;99.90
5150;DHT22;2593;52.466;13.436;2022-10-16T08:04:27;16.80;99.90
5150;DHT22;2593;52.466;13.436;2022-10-16T08:06:53;16.80;99.90
5150;DHT22;2593;52.466;13.436;2022-10-16T08:09:19;16.80;99.90
5150;DHT22;2593;52.466;13.436;2022-10-16T08:11:45;16.80;99.90
5150;DHT22;2593;52.466;13.436;2022-10-16T08:14:10;16.80;99.90
5150;DHT22;2593;52.466;13.436;2022-10-16T08:16:36;16.80;99.90
5150;DHT22;2593;52.466;13.436;2022-10-16T08:19:01;16.90;99.90
5150;DHT22;2593;52.466;13.436;2022-10-16T08:21:27;16.80;99.90
5150;DHT22;2593;52.466;13.436;2022-10-16T08:23:53;16.80;99.90
5150;DHT22;2593;52.466;13.436;2022-10-16T08:26:20;16.90;99.90
5150;DHT22;2593;52.466;13.436;2022-10-16T08:28:49;17.00;99.90
5150;DHT22;2593;52.466;13.436;2022-10-16T08:31:15;17.20;99.90
5150;DHT22;2593;52.466;13.436;2022-10-16T08:33:42;17.20;99.90
5150;DHT22;2593;52.466;13.436;2022-10-16T08:36:10;17.40;99.90
5150;DHT22;2593;52.466;13.436;2022-10-16T08:38:37;17.50;99.90
5150;DHT22;2593;52.466;13.436;2022-10-16T08:49:17;17.90;63.50
5150;DHT22;2593;52.466;13.436;2022-10-16T08:51:43;17.90;1.00
5150;DHT22;2593;52.466;13.436;2022-10-16T08:54:26;17.90;1.00
5150;DHT22;2593;52.466;13.436;2022-10-16T08:57:00;17.80;99.90
5150;DHT22;2593;52.466;13.436;2022-10-16T08:59:26;17.80;99.90
5150;DHT22;2593;52.466;13.436;2022-10-16T09:01:52;17.70;96.20
5150;DHT22;2593;52.466;13.436;2022-10-16T09:04:48;17.70;99.90
5150;DHT22;2593;52.466;13.436;2022-10-16T09:18:59;19.40;1.80
5150;DHT22;2593;52.466;13.436;2022-10-16T09:21:33;19.80;99.90
5150;DHT22;2593;52.466;13.436;2022-10-16T09:24:11;20.00;99.90
5150;DHT22;2593;52.466;13.436;2022-10-16T09:26:38;19.70;99.90
5150;DHT22;2593;52.466;13.436;2022-10-16T09:29:03;19.40;99.90
5150;DHT22;2593;52.466;13.436;2022-10-16T09:31:29;19.30;99.90
5150;DHT22;2593;52.466;13.436;2022-10-16T09:34:00;19.50;99.90
5150;DHT22;2593;52.466;13.436;2022-10-16T09:36:39;19.80;99.90
5150;DHT22;2593;52.466;13.436;2022-10-16T09:39:07;20.70;99.90
5150;DHT22;2593;52.466;13.436;2022-10-16T09:41:36;21.10;99.90
5150;DHT22;2593;52.466;13.436;2022-10-16T09:44:03;22.00;91.60
5150;DHT22;2593;52.466;13.436;2022-10-16T09:46:33;23.80;15.10
5150;DHT22;2593;52.466;13.436;2022-10-16T09:49:01;26.40;1.00
5150;DHT22;2593;52.466;13.436;2022-10-16T09:51:36;27.70;1.00
5150;DHT22;2593;52.466;13.436;2022-10-16T09:56:38;27.60;1.00
5150;DHT22;2593;52.466;13.436;2022-10-16T09:59:31;26.20;1.00
5150;DHT22;2593;52.466;13.436;2022-10-16T10:01:56;25.20;1.00
5150;DHT22;2593;52.466;13.436;2022-10-16T10:04:38;24.70;1.00
5150;DHT22;2593;52.466;13.436;2022-10-16T10:07:04;24.10;1.00
5150;DHT22;2593;52.466;13.436;2022-10-16T10:09:38;23.90;1.00
5150;DHT22;2593;52.466;13.436;2022-10-16T10:12:06;23.30;1.00
5150;DHT22;2593;52.466;13.436;2022-10-16T10:14:42;22.80;1.00
5150;DHT22;2593;52.466;13.436;2022-10-16T10:17:16;22.40;1.00
5150;DHT22;2593;52.466;13.436;2022-10-16T10:31:01;20.70;24.20
5150;DHT22;2593;52.466;13.436;2022-10-16T10:33:37;20.40;61.10
5150;DHT22;2593;52.466;13.436;2022-10-16T10:36:24;20.40;78.00
5150;DHT22;2593;52.466;13.436;2022-10-16T10:38:54;20.30;89.80
5150;DHT22;2593;52.466;13.436;2022-10-16T10:44:16;20.40;65.00
5150;DHT22;2593;52.466;13.436;2022-10-16T10:52:53;20.40;35.90
5150;DHT22;2593;52.466;13.436;2022-10-16T10:55:45;20.30;20.50
5150;DHT22;2593;52.466;13.436;2022-10-16T11:01:25;20.10;24.50
5150;DHT22;2593;52.466;13.436;2022-10-16T11:03:58;20.10;26.00
5150;DHT22;2593;52.466;13.436;2022-10-16T11:09:07;20.20;25.70
5150;DHT22;2593;52.466;13.436;2022-10-16T11:11:42;20.30;18.80
5150;DHT22;2593;52.466;13.436;2022-10-16T11:16:51;20.30;9.20
5150;DHT22;2593;52.466;13.436;2022-10-16T11:19:40;20.30;3.60
5150;DHT22;2593;52.466;13.436;2022-10-16T11:22:11;20.40;1.00
5150;DHT22;2593;52.466;13.436;2022-10-16T11:24:55;20.40;1.00
5150;DHT22;2593;52.466;13.436;2022-10-16T11:27:36;20.40;1.00
5150;DHT22;2593;52.466;13.436;2022-10-16T11:30:06;20.50;1.00
5150;DHT22;2593;52.466;13.436;2022-10-16T11:35:57;20.40;1.00
5150;DHT22;2593;52.466;13.436;2022-10-16T11:38:34;20.50;1.00
5150;DHT22;2593;52.466;13.436;2022-10-16T11:44:31;20.30;1.00
5150;DHT22;2593;52.466;13.436;2022-10-16T11:47:10;20.20;1.00
5150;DHT22;2593;52.466;13.436;2022-10-16T11:49:37;20.20;1.00
5150;DHT22;2593;52.466;13.436;2022-10-16T11:52:23;20.40;1.00
5150;DHT22;2593;52.466;13.436;2022-10-16T11:55:19;20.40;1.00
5150;DHT22;2593;52.466;13.436;2022-10-16T11:57:54;20.30;1.00
5150;DHT22;2593;52.466;13.436;2022-10-16T12:00:33;20.20;1.00
5150;DHT22;2593;52.466;13.436;2022-10-16T12:03:17;20.10;1.00
5150;DHT22;2593;52.466;13.436;2022-10-16T12:05:57;20.00;1.00
5150;DHT22;2593;52.466;13.436;2022-10-16T12:08:25;20.00;1.00
5150;DHT22;2593;52.466;13.436;2022-10-16T12:10:51;20.00;1.00
5150;DHT22;2593;52.466;13.436;2022-10-16T12:18:43;20.10;1.00
5150;DHT22;2593;52.466;13.436;2022-10-16T12:21:11;20.00;1.00
5150;DHT22;2593;52.466;13.436;2022-10-16T12:26:12;19.90;1.00
5150;DHT22;2593;52.466;13.436;2022-10-16T12:28:38;19.90;1.00
5150;DHT22;2593;52.466;13.436;2022-10-16T12:31:07;19.90;1.00
5150;DHT22;2593;52.466;13.436;2022-10-16T12:33:37;19.90;1.00
5150;DHT22;2593;52.466;13.436;2022-10-16T12:36:51;19.90;1.00
5150;DHT22;2593;52.466;13.436;2022-10-16T12:38:57;19.80;1.00
5150;DHT22;2593;52.466;13.436;2022-10-16T12:41:29;19.80;1.00
5150;DHT22;2593;52.466;13.436;2022-10-16T12:43:56;19.70;1.00
5150;DHT22;2593;52.466;13.436;2022-10-16T12:48:49;19.60;1.00
5150;DHT22;2593;52.466;13.436;2022-10-16T12:51:25;19.60;1.00
5150;DHT22;2593;52.466;13.436;2022-10-16T12:54:19;19.70;1.00
5150;DHT22;2593;52.466;13.436;2022-10-16T12:57:01;19.70;1.00
5150;DHT22;2593;52.466;13.436;2022-10-16T12:59:32;19.70;1.00
5150;DHT22;2593;52.466;13.436;2022-10-16T13:13:18;19.60;1.00
5150;DHT22;2593;52.466;13.436;2022-10-16T13:18:48;19.50;1.00
5150;DHT22;2593;52.466;13.436;2022-10-16T13:21:34;19.50;1.00
5150;DHT22;2593;52.466;13.436;2022-10-16T13:24:14;19.50;1.00
5150;DHT22;2593;52.466;13.436;2022-10-16T13:26:57;19.50;1.00
5150;DHT22;2593;52.466;13.436;2022-10-16T13:29:31;19.50;1.00
5150;DHT22;2593;52.466;13.436;2022-10-16T13:31:58;19.50;1.00
5150;DHT22;2593;52.466;13.436;2022-10-16T13:34:24;19.60;1.00
5150;DHT22;2593;52.466;13.436;2022-10-16T13:36:52;19.50;1.00
5150;DHT22;2593;52.466;13.436;2022-10-16T13:39:26;19.50;1.00
5150;DHT22;2593;52.466;13.436;2022-10-16T13:44:27;19.50;1.00
5150;DHT22;2593;52.466;13.436;2022-10-16T13:47:02;19.50;1.00
5150;DHT22;2593;52.466;13.436;2022-10-16T13:49:28;19.50;1.00
5150;DHT22;2593;52.466;13.436;2022-10-16T13:51:55;19.40;1.00
5150;DHT22;2593;52.466;13.436;2022-10-16T13:54:22;19.30;1.00
5150;DHT22;2593;52.466;13.436;2022-10-16T13:56:47;19.20;1.00
5150;DHT22;2593;52.466;13.436;2022-10-16T13:59:35;19.20;1.00
5150;DHT22;2593;52.466;13.436;2022-10-16T14:02:08;19.20;1.00
5150;DHT22;2593;52.466;13.436;2022-10-16T14:04:40;19.20;1.00
5150;DHT22;2593;52.466;13.436;2022-10-16T14:07:14;19.20;1.00
5150;DHT22;2593;52.466;13.436;2022-10-16T14:09:40;19.20;1.00
5150;DHT22;2593;52.466;13.436;2022-10-16T14:12:11;19.20;1.00
5150;DHT22;2593;52.466;13.436;2022-10-16T14:14:47;19.20;1.00
5150;DHT22;2593;52.466;13.436;2022-10-16T14:17:22;19.10;1.00
5150;DHT22;2593;52.466;13.436;2022-10-16T14:19:50;19.10;1.00
5150;DHT22;2593;52.466;13.436;2022-10-16T14:22:37;19.10;1.00
5150;DHT22;2593;52.466;13.436;2022-10-16T14:25:27;19.10;1.00
5150;DHT22;2593;52.466;13.436;2022-10-16T14:30:36;19.10;1.00
5150;DHT22;2593;52.466;13.436;2022-10-16T14:33:06;19.00;1.00
5150;DHT22;2593;52.466;13.436;2022-10-16T14:35:44;19.00;1.00
5150;DHT22;2593;52.466;13.436;2022-10-16T14:38:19;19.10;1.00
5150;DHT22;2593;52.466;13.436;2022-10-16T14:40:49;19.10;1.00
5150;DHT22;2593;52.466;13.436;2022-10-16T14:43:26;19.10;1.00
5150;DHT22;2593;52.466;13.436;2022-10-16T14:45:55;19.10;1.00
5150;DHT22;2593;52.466;13.436;2022-10-16T14:48:22;19.00;1.00
5150;DHT22;2593;52.466;13.436;2022-10-16T14:50:48;19.00;1.00
5150;DHT22;2593;52.466;13.436;2022-10-16T14:53:14;19.00;1.00
5150;DHT22;2593;52.466;13.436;2022-10-16T14:55:41;18.90;1.00
5150;DHT22;2593;52.466;13.436;2022-10-16T15:00:40;18.90;1.00
5150;DHT22;2593;52.466;13.436;2022-10-16T15:03:05;18.90;1.00
5150;DHT22;2593;52.466;13.436;2022-10-16T15:05:31;18.80;1.00
5150;DHT22;2593;52.466;13.436;2022-10-16T15:07:57;18.80;1.00
5150;DHT22;2593;52.466;13.436;2022-10-16T15:10:25;18.70;1.00
5150;DHT22;2593;52.466;13.436;2022-10-16T15:12:51;18.70;1.00
5150;DHT22;2593;52.466;13.436;2022-10-16T15:17:55;18.60;1.00
5150;DHT22;2593;52.466;13.436;2022-10-16T15:20:30;18.60;1.00
5150;DHT22;2593;52.466;13.436;2022-10-16T15:22:57;18.60;1.00
5150;DHT22;2593;52.466;13.436;2022-10-16T15:27:51;18.50;1.00
5150;DHT22;2593;52.466;13.436;2022-10-16T15:30:16;18.40;1.00
5150;DHT22;2593;52.466;13.436;2022-10-16T15:32:42;18.40;1.00
5150;DHT22;2593;52.466;13.436;2022-10-16T15:35:11;18.40;1.00
5150;DHT22;2593;52.466;13.436;2022-10-16T15:37:36;18.30;1.00
5150;DHT22;2593;52.466;13.436;2022-10-16T15:40:02;18.30;1.00
5150;DHT22;2593;52.466;13.436;2022-10-16T15:42:28;18.20;1.00
5150;DHT22;2593;52.466;13.436;2022-10-16T15:44:53;18.10;1.00
5150;DHT22;2593;52.466;13.436;2022-10-16T15:47:19;18.10;1.00
5150;DHT22;2593;52.466;13.436;2022-10-16T15:49:44;18.00;1.00
5150;DHT22;2593;52.466;13.436;2022-10-16T15:52:11;18.00;1.00
5150;DHT22;2593;52.466;13.436;2022-10-16T15:54:36;17.90;1.00
5150;DHT22;2593;52.466;13.436;2022-10-16T15:57:02;17.90;1.00
5150;DHT22;2593;52.466;13.436;2022-10-16T15:59:28;17.80;1.00
5150;DHT22;2593;52.466;13.436;2022-10-16T16:01:53;17.80;1.00
5150;DHT22;2593;52.466;13.436;2022-10-16T16:04:19;17.70;1.00
5150;DHT22;2593;52.466;13.436;2022-10-16T16:06:44;17.60;1.00
5150;DHT22;2593;52.466;13.436;2022-10-16T16:09:12;17.60;1.00
5150;DHT22;2593;52.466;13.436;2022-10-16T16:11:37;17.50;1.00
5150;DHT22;2593;52.466;13.436;2022-10-16T16:14:07;17.50;1.00
5150;DHT22;2593;52.466;13.436;2022-10-16T16:16:35;17.40;1.00
5150;DHT22;2593;52.466;13.436;2022-10-16T16:19:06;17.40;1.00
5150;DHT22;2593;52.466;13.436;2022-10-16T16:21:33;17.30;1.00
5150;DHT22;2593;52.466;13.436;2022-10-16T16:23:59;17.20;1.00
5150;DHT22;2593;52.466;13.436;2022-10-16T16:26:29;17.20;1.00
5150;DHT22;2593;52.466;13.436;2022-10-16T16:28:59;17.10;1.00
5150;DHT22;2593;52.466;13.436;2022-10-16T16:31:26;17.00;1.00
5150;DHT22;2593;52.466;13.436;2022-10-16T16:33:53;17.00;1.00
5150;DHT22;2593;52.466;13.436;2022-10-16T16:36:19;17.00;1.00
5150;DHT22;2593;52.466;13.436;2022-10-16T16:38:45;16.90;1.00
5150;DHT22;2593;52.466;13.436;2022-10-16T16:41:16;16.80;7.00
5150;DHT22;2593;52.466;13.436;2022-10-16T16:43:42;16.80;1.60
5150;DHT22;2593;52.466;13.436;2022-10-16T16:46:08;16.80;4.80
5150;DHT22;2593;52.466;13.436;2022-10-16T16:48:34;16.70;8.20
5150;DHT22;2593;52.466;13.436;2022-10-16T16:51:04;16.70;12.90
5150;DHT22;2593;52.466;13.436;2022-10-16T16:53:30;16.60;21.90
5150;DHT22;2593;52.466;13.436;2022-10-16T16:55:55;16.60;30.00
5150;DHT22;2593;52.466;13.436;2022-10-16T16:58:25;16.50;36.80
5150;DHT22;2593;52.466;13.436;2022-10-16T17:00:51;16.50;44.70
5150;DHT22;2593;52.466;13.436;2022-10-16T17:03:16;16.50;49.20
5150;DHT22;2593;52.466;13.436;2022-10-16T17:05:42;16.40;54.20
5150;DHT22;2593;52.466;13.436;2022-10-16T17:08:07;16.40;58.80
5150;DHT22;2593;52.466;13.436;2022-10-16T17:10:33;16.40;64.70
5150;DHT22;2593;52.466;13.436;2022-10-16T17:12:59;16.30;76.20
5150;DHT22;2593;52.466;13.436;2022-10-16T17:15:24;16.30;78.90
5150;DHT22;2593;52.466;13.436;2022-10-16T17:17:50;16.30;86.70
5150;DHT22;2593;52.466;13.436;2022-10-16T17:20:15;16.30;97.50
5150;DHT22;2593;52.466;13.436;2022-10-16T17:22:41;16.20;99.90
5150;DHT22;2593;52.466;13.436;2022-10-16T17:25:07;16.20;99.90
5150;DHT22;2593;52.466;13.436;2022-10-16T17:27:33;16.10;99.90
5150;DHT22;2593;52.466;13.436;2022-10-16T17:30:00;16.10;99.90
5150;DHT22;2593;52.466;13.436;2022-10-16T17:32:25;16.10;99.90
5150;DHT22;2593;52.466;13.436;2022-10-16T17:34:51;16.00;99.90
5150;DHT22;2593;52.466;13.436;2022-10-16T17:37:17;16.00;99.90
5150;DHT22;2593;52.466;13.436;2022-10-16T17:39:42;16.00;99.90
5150;DHT22;2593;52.466;13.436;2022-10-16T17:42:08;15.90;99.90
5150;DHT22;2593;52.466;13.436;2022-10-16T17:44:33;15.90;99.90
5150;DHT22;2593;52.466;13.436;2022-10-16T17:46:59;15.80;99.90
5150;DHT22;2593;52.466;13.436;2022-10-16T17:49:24;15.80;99.90
5150;DHT22;2593;52.466;13.436;2022-10-16T17:51:51;15.70;99.90
5150;DHT22;2593;52.466;13.436;2022-10-16T17:54:17;15.70;99.90
5150;DHT22;2593;52.466;13.436;2022-10-16T17:56:43;15.70;99.90
5150;DHT22;2593;52.466;13.436;2022-10-16T17:59:10;15.70;99.90
5150;DHT22;2593;52.466;13.436;2022-10-16T18:01:38;15.70;99.90